sensor_id;sensor_type;location;lat;lon;timestamp;temperature;humidity
59162;DHT22;44942;48.936;8.260;2023-10-31T00:03:33;22.80;59.70
59162;DHT22;44942;48.936;8.260;2023-10-31T00:08:34;22.80;59.70
59162;DHT22;44942;48.936;8.260;2023-10-31T00:13:35;22.80;59.70
59162;DHT22;44942;48.936;8.260;2023-10-31T00:18:35;22.80;59.80
59162;DHT22;44942;48.936;8.260;2023-10-31T00:23:48;22.80;59.70
59162;DHT22;44942;48.936;8.260;2023-10-31T00:28:49;22.70;59.70
59162;DHT22;44942;48.936;8.260;2023-10-31T00:33:50;22.50;59.70
59162;DHT22;44942;48.936;8.260;2023-10-31T00:38:50;22.60;59.70
59162;DHT22;44942;48.936;8.260;2023-10-31T00:43:51;22.70;60.50
59162;DHT22;44942;48.936;8.260;2023-10-31T00:48:52;22.70;59.60
59162;DHT22;44942;48.936;8.260;2023-10-31T00:53:52;22.70;59.70
59162;DHT22;44942;48.936;8.260;2023-10-31T00:58:53;22.70;59.70
59162;DHT22;44942;48.936;8.260;2023-10-31T01:03:53;22.70;59.70
59162;DHT22;44942;48.936;8.260;2023-10-31T01:08:54;22.70;59.70
59162;DHT22;44942;48.936;8.260;2023-10-31T01:13:55;22.70;59.80
59162;DHT22;44942;48.936;8.260;2023-10-31T01:18:55;22.70;59.70
59162;DHT22;44942;48.936;8.260;2023-10-31T01:23:56;22.70;59.70
59162;DHT22;44942;48.936;8.260;2023-10-31T01:28:56;22.70;59.60
59162;DHT22;44942;48.936;8.260;2023-10-31T01:33:58;22.50;59.50
59162;DHT22;44942;48.936;8.260;2023-10-31T01:38:59;22.50;59.30
59162;DHT22;44942;48.936;8.260;2023-10-31T01:43:59;22.60;59.30
59162;DHT22;44942;48.936;8.260;2023-10-31T01:49:00;22.70;59.40
59162;DHT22;44942;48.936;8.260;2023-10-31T01:54:00;22.60;59.30
59162;DHT22;44942;48.936;8.260;2023-10-31T01:59:02;22.70;59.40
59162;DHT22;44942;48.936;8.260;2023-10-31T02:04:02;22.70;59.50
59162;DHT22;44942;48.936;8.260;2023-10-31T02:09:04;22.70;59.50
59162;DHT22;44942;48.936;8.260;2023-10-31T02:14:04;22.70;59.50
59162;DHT22;44942;48.936;8.260;2023-10-31T02:19:05;22.70;59.60
59162;DHT22;44942;48.936;8.260;2023-10-31T02:24:06;22.70;59.50
59162;DHT22;44942;48.936;8.260;2023-10-31T02:29:07;22.60;59.40
59162;DHT22;44942;48.936;8.260;2023-10-31T02:34:08;22.40;59.30
59162;DHT22;44942;48.936;8.260;2023-10-31T02:39:08;22.40;59.20
59162;DHT22;44942;48.936;8.260;2023-10-31T02:44:09;22.50;59.10
59162;DHT22;44942;48.936;8.260;2023-10-31T02:49:10;22.60;59.20
59162;DHT22;44942;48.936;8.260;2023-10-31T02:54:10;22.60;59.20
59162;DHT22;44942;48.936;8.260;2023-10-31T02:59:11;22.60;59.30
59162;DHT22;44942;48.936;8.260;2023-10-31T03:04:12;22.60;59.20
59162;DHT22;44942;48.936;8.260;2023-10-31T03:09:12;22.60;59.30
59162;DHT22;44942;48.936;8.260;2023-10-31T03:14:13;22.60;59.20
59162;DHT22;44942;48.936;8.260;2023-10-31T03:19:13;22.60;59.30
59162;DHT22;44942;48.936;8.260;2023-10-31T03:24:14;22.60;59.30
59162;DHT22;44942;48.936;8.260;2023-10-31T03:29:15;22.50;59.10
59162;DHT22;44942;48.936;8.260;2023-10-31T03:34:15;22.40;58.90
59162;DHT22;44942;48.936;8.260;2023-10-31T03:39:16;22.40;58.80
59162;DHT22;44942;48.936;8.260;2023-10-31T03:44:16;22.50;58.70
59162;DHT22;44942;48.936;8.260;2023-10-31T03:49:17;22.50;58.80
59162;DHT22;44942;48.936;8.260;2023-10-31T03:54:17;22.50;58.80
59162;DHT22;44942;48.936;8.260;2023-10-31T03:59:18;22.50;58.90
59162;DHT22;44942;48.936;8.260;2023-10-31T04:04:18;22.50;59.00
59162;DHT22;44942;48.936;8.260;2023-10-31T04:09:19;22.50;59.00
59162;DHT22;44942;48.936;8.260;2023-10-31T04:14:20;22.50;59.00
59162;DHT22;44942;48.936;8.260;2023-10-31T04:19:20;22.50;59.10
59162;DHT22;44942;48.936;8.260;2023-10-31T04:24:21;22.50;59.20
59162;DHT22;44942;48.936;8.260;2023-10-31T04:29:21;22.50;59.00
59162;DHT22;44942;48.936;8.260;2023-10-31T04:34:22;22.30;58.70
59162;DHT22;44942;48.936;8.260;2023-10-31T04:39:23;22.40;58.70
59162;DHT22;44942;48.936;8.260;2023-10-31T04:44:24;22.40;58.60
59162;DHT22;44942;48.936;8.260;2023-10-31T04:49:24;22.50;58.60
59162;DHT22;44942;48.936;8.260;2023-10-31T04:54:25;22.50;58.60
59162;DHT22;44942;48.936;8.260;2023-10-31T04:59:25;22.50;58.60
59162;DHT22;44942;48.936;8.260;2023-10-31T05:04:26;22.50;58.60
59162;DHT22;44942;48.936;8.260;2023-10-31T05:09:26;22.50;58.70
59162;DHT22;44942;48.936;8.260;2023-10-31T05:14:27;22.50;58.60
59162;DHT22;44942;48.936;8.260;2023-10-31T05:19:28;22.50;58.60
59162;DHT22;44942;48.936;8.260;2023-10-31T05:24:28;22.50;58.60
59162;DHT22;44942;48.936;8.260;2023-10-31T05:29:29;22.40;58.50
59162;DHT22;44942;48.936;8.260;2023-10-31T05:34:30;22.30;58.30
59162;DHT22;44942;48.936;8.260;2023-10-31T05:39:31;22.30;58.30
59162;DHT22;44942;48.936;8.260;2023-10-31T05:44:31;22.40;58.40
59162;DHT22;44942;48.936;8.260;2023-10-31T05:49:32;22.40;58.40
59162;DHT22;44942;48.936;8.260;2023-10-31T05:54:32;22.50;58.40
59162;DHT22;44942;48.936;8.260;2023-10-31T05:59:33;22.40;58.40
59162;DHT22;44942;48.936;8.260;2023-10-31T06:04:34;22.50;58.50
59162;DHT22;44942;48.936;8.260;2023-10-31T06:09:34;22.50;58.60
59162;DHT22;44942;48.936;8.260;2023-10-31T06:14:35;22.50;58.60
59162;DHT22;44942;48.936;8.260;2023-10-31T06:19:36;22.50;58.70
59162;DHT22;44942;48.936;8.260;2023-10-31T06:24:37;22.50;58.70
59162;DHT22;44942;48.936;8.260;2023-10-31T06:29:38;22.40;58.50
59162;DHT22;44942;48.936;8.260;2023-10-31T06:34:38;22.30;58.40
59162;DHT22;44942;48.936;8.260;2023-10-31T06:39:39;22.30;58.40
59162;DHT22;44942;48.936;8.260;2023-10-31T06:44:39;22.40;58.30
59162;DHT22;44942;48.936;8.260;2023-10-31T06:49:40;22.40;58.30
59162;DHT22;44942;48.936;8.260;2023-10-31T06:54:40;22.50;58.40
59162;DHT22;44942;48.936;8.260;2023-10-31T06:59:41;22.40;58.50
59162;DHT22;44942;48.936;8.260;2023-10-31T07:04:42;22.50;58.60
59162;DHT22;44942;48.936;8.260;2023-10-31T07:09:42;22.50;58.50
59162;DHT22;44942;48.936;8.260;2023-10-31T07:14:43;22.50;58.50
59162;DHT22;44942;48.936;8.260;2023-10-31T07:19:44;22.50;58.50
59162;DHT22;44942;48.936;8.260;2023-10-31T07:24:44;22.50;58.40
59162;DHT22;44942;48.936;8.260;2023-10-31T07:29:46;22.40;58.30
59162;DHT22;44942;48.936;8.260;2023-10-31T07:34:46;22.20;58.10
59162;DHT22;44942;48.936;8.260;2023-10-31T07:39:47;22.20;58.10
59162;DHT22;44942;48.936;8.260;2023-10-31T07:44:48;22.30;58.00
59162;DHT22;44942;48.936;8.260;2023-10-31T07:49:50;22.30;58.70
59162;DHT22;44942;48.936;8.260;2023-10-31T07:54:51;22.30;58.00
59162;DHT22;44942;48.936;8.260;2023-10-31T07:59:52;22.30;58.10
59162;DHT22;44942;48.936;8.260;2023-10-31T08:04:53;22.30;58.00
59162;DHT22;44942;48.936;8.260;2023-10-31T08:09:53;22.40;58.00
59162;DHT22;44942;48.936;8.260;2023-10-31T08:14:54;22.30;58.00
59162;DHT22;44942;48.936;8.260;2023-10-31T08:19:54;22.40;58.10
59162;DHT22;44942;48.936;8.260;2023-10-31T08:24:55;22.40;58.10
59162;DHT22;44942;48.936;8.260;2023-10-31T08:29:56;22.40;58.00
59162;DHT22;44942;48.936;8.260;2023-10-31T08:34:56;22.40;58.00
59162;DHT22;44942;48.936;8.260;2023-10-31T08:39:58;22.40;58.10
59162;DHT22;44942;48.936;8.260;2023-10-31T08:44:58;22.30;58.00
59162;DHT22;44942;48.936;8.260;2023-10-31T08:49:59;22.30;58.00
59162;DHT22;44942;48.936;8.260;2023-10-31T08:55:00;22.30;58.10
59162;DHT22;44942;48.936;8.260;2023-10-31T09:00:00;22.30;58.10
59162;DHT22;44942;48.936;8.260;2023-10-31T09:05:01;22.40;58.10
59162;DHT22;44942;48.936;8.260;2023-10-31T09:10:02;22.30;58.00
59162;DHT22;44942;48.936;8.260;2023-10-31T09:15:04;22.30;58.00
59162;DHT22;44942;48.936;8.260;2023-10-31T09:20:05;22.30;58.00
59162;DHT22;44942;48.936;8.260;2023-10-31T09:25:06;22.30;58.10
59162;DHT22;44942;48.936;8.260;2023-10-31T09:30:07;22.30;58.00
59162;DHT22;44942;48.936;8.260;2023-10-31T09:35:08;22.30;58.00
59162;DHT22;44942;48.936;8.260;2023-10-31T09:40:09;22.30;58.00
59162;DHT22;44942;48.936;8.260;2023-10-31T09:45:10;22.30;58.10
59162;DHT22;44942;48.936;8.260;2023-10-31T09:50:11;22.30;58.00
59162;DHT22;44942;48.936;8.260;2023-10-31T09:55:12;22.30;58.00
59162;DHT22;44942;48.936;8.260;2023-10-31T10:00:12;22.30;58.10
59162;DHT22;44942;48.936;8.260;2023-10-31T10:05:15;22.30;58.10
59162;DHT22;44942;48.936;8.260;2023-10-31T10:10:16;22.30;58.00
59162;DHT22;44942;48.936;8.260;2023-10-31T10:15:17;22.30;58.20
59162;DHT22;44942;48.936;8.260;2023-10-31T10:20:18;22.30;58.10
59162;DHT22;44942;48.936;8.260;2023-10-31T10:25:19;22.30;58.10
59162;DHT22;44942;48.936;8.260;2023-10-31T10:30:20;22.30;58.10
59162;DHT22;44942;48.936;8.260;2023-10-31T10:35:20;22.20;58.10
59162;DHT22;44942;48.936;8.260;2023-10-31T10:40:21;22.20;58.10
59162;DHT22;44942;48.936;8.260;2023-10-31T10:45:22;22.20;58.10
59162;DHT22;44942;48.936;8.260;2023-10-31T10:50:24;22.20;58.20
59162;DHT22;44942;48.936;8.260;2023-10-31T10:55:30;22.20;58.20
59162;DHT22;44942;48.936;8.260;2023-10-31T11:00:36;22.20;58.20
59162;DHT22;44942;48.936;8.260;2023-10-31T11:05:37;22.20;58.20
59162;DHT22;44942;48.936;8.260;2023-10-31T11:10:39;22.20;58.30
59162;DHT22;44942;48.936;8.260;2023-10-31T11:15:41;22.20;58.30
59162;DHT22;44942;48.936;8.260;2023-10-31T11:20:42;22.10;58.30
59162;DHT22;44942;48.936;8.260;2023-10-31T11:25:44;22.10;58.30
59162;DHT22;44942;48.936;8.260;2023-10-31T11:30:49;22.10;58.30
59162;DHT22;44942;48.936;8.260;2023-10-31T11:36:00;22.10;58.30
59162;DHT22;44942;48.936;8.260;2023-10-31T11:41:03;22.10;58.30
59162;DHT22;44942;48.936;8.260;2023-10-31T11:46:03;22.10;58.40
59162;DHT22;44942;48.936;8.260;2023-10-31T11:51:04;22.10;58.40
59162;DHT22;44942;48.936;8.260;2023-10-31T11:56:05;22.10;58.30
59162;DHT22;44942;48.936;8.260;2023-10-31T12:01:08;22.10;58.30
59162;DHT22;44942;48.936;8.260;2023-10-31T12:06:10;22.10;58.30
59162;DHT22;44942;48.936;8.260;2023-10-31T12:11:14;22.10;58.40
59162;DHT22;44942;48.936;8.260;2023-10-31T12:16:18;22.10;58.40
59162;DHT22;44942;48.936;8.260;2023-10-31T12:21:18;22.10;58.40
59162;DHT22;44942;48.936;8.260;2023-10-31T12:26:22;22.10;58.50
59162;DHT22;44942;48.936;8.260;2023-10-31T12:31:23;22.10;58.50
59162;DHT22;44942;48.936;8.260;2023-10-31T12:36:23;22.10;58.40
59162;DHT22;44942;48.936;8.260;2023-10-31T12:41:26;22.20;58.40
59162;DHT22;44942;48.936;8.260;2023-10-31T12:46:31;22.10;58.30
59162;DHT22;44942;48.936;8.260;2023-10-31T12:51:32;22.10;58.40
59162;DHT22;44942;48.936;8.260;2023-10-31T12:56:39;22.10;58.40
59162;DHT22;44942;48.936;8.260;2023-10-31T13:01:45;22.10;58.40
59162;DHT22;44942;48.936;8.260;2023-10-31T13:11:58;22.10;58.50
59162;DHT22;44942;48.936;8.260;2023-10-31T13:17:00;22.10;58.40
59162;DHT22;44942;48.936;8.260;2023-10-31T13:22:02;22.10;58.60
59162;DHT22;44942;48.936;8.260;2023-10-31T13:27:02;22.10;58.40
59162;DHT22;44942;48.936;8.260;2023-10-31T13:32:04;22.10;58.60
59162;DHT22;44942;48.936;8.260;2023-10-31T13:37:04;22.10;58.50
59162;DHT22;44942;48.936;8.260;2023-10-31T13:42:05;22.10;58.50
59162;DHT22;44942;48.936;8.260;2023-10-31T13:47:06;22.10;58.50
59162;DHT22;44942;48.936;8.260;2023-10-31T13:52:07;22.00;58.40
59162;DHT22;44942;48.936;8.260;2023-10-31T13:57:07;22.10;58.50
59162;DHT22;44942;48.936;8.260;2023-10-31T14:02:08;22.10;58.50
59162;DHT22;44942;48.936;8.260;2023-10-31T14:07:08;22.10;58.40
59162;DHT22;44942;48.936;8.260;2023-10-31T14:12:09;22.10;58.60
59162;DHT22;44942;48.936;8.260;2023-10-31T14:17:10;22.10;58.60
59162;DHT22;44942;48.936;8.260;2023-10-31T14:22:12;22.10;58.70
59162;DHT22;44942;48.936;8.260;2023-10-31T14:27:14;22.10;58.60
59162;DHT22;44942;48.936;8.260;2023-10-31T14:32:15;22.10;58.60
59162;DHT22;44942;48.936;8.260;2023-10-31T14:37:16;22.10;58.60
59162;DHT22;44942;48.936;8.260;2023-10-31T14:42:16;22.10;59.40
59162;DHT22;44942;48.936;8.260;2023-10-31T14:47:17;22.10;58.80
59162;DHT22;44942;48.936;8.260;2023-10-31T14:52:17;22.10;58.80
59162;DHT22;44942;48.936;8.260;2023-10-31T14:57:18;22.10;58.90
59162;DHT22;44942;48.936;8.260;2023-10-31T15:02:20;22.10;58.90
59162;DHT22;44942;48.936;8.260;2023-10-31T15:07:20;22.10;58.90
59162;DHT22;44942;48.936;8.260;2023-10-31T15:12:21;22.10;58.90
59162;DHT22;44942;48.936;8.260;2023-10-31T15:17:22;22.10;58.90
59162;DHT22;44942;48.936;8.260;2023-10-31T15:22:23;22.10;58.90
59162;DHT22;44942;48.936;8.260;2023-10-31T15:27:23;22.10;58.90
59162;DHT22;44942;48.936;8.260;2023-10-31T15:32:24;22.10;58.80
59162;DHT22;44942;48.936;8.260;2023-10-31T15:37:24;22.10;58.90
59162;DHT22;44942;48.936;8.260;2023-10-31T15:42:25;22.10;58.90
59162;DHT22;44942;48.936;8.260;2023-10-31T15:47:26;22.10;58.90
59162;DHT22;44942;48.936;8.260;2023-10-31T15:52:27;22.10;58.90
59162;DHT22;44942;48.936;8.260;2023-10-31T15:57:27;22.10;58.90
59162;DHT22;44942;48.936;8.260;2023-10-31T16:02:28;22.10;58.90
59162;DHT22;44942;48.936;8.260;2023-10-31T16:07:28;22.10;59.00
59162;DHT22;44942;48.936;8.260;2023-10-31T16:12:29;22.10;59.00
59162;DHT22;44942;48.936;8.260;2023-10-31T16:17:30;22.10;59.00
59162;DHT22;44942;48.936;8.260;2023-10-31T16:22:30;22.10;59.00
59162;DHT22;44942;48.936;8.260;2023-10-31T16:27:32;22.10;59.10
59162;DHT22;44942;48.936;8.260;2023-10-31T16:32:32;22.10;59.10
59162;DHT22;44942;48.936;8.260;2023-10-31T16:37:33;22.10;59.10
59162;DHT22;44942;48.936;8.260;2023-10-31T16:42:34;22.10;59.10
59162;DHT22;44942;48.936;8.260;2023-10-31T16:47:34;22.10;59.10
59162;DHT22;44942;48.936;8.260;2023-10-31T16:52:35;22.10;59.00
59162;DHT22;44942;48.936;8.260;2023-10-31T16:57:35;22.10;59.10
59162;DHT22;44942;48.936;8.260;2023-10-31T17:02:36;22.10;59.20
59162;DHT22;44942;48.936;8.260;2023-10-31T17:07:37;22.10;59.10
59162;DHT22;44942;48.936;8.260;2023-10-31T17:12:37;22.10;59.10
59162;DHT22;44942;48.936;8.260;2023-10-31T17:17:38;22.10;59.10
59162;DHT22;44942;48.936;8.260;2023-10-31T17:22:38;22.10;59.10
59162;DHT22;44942;48.936;8.260;2023-10-31T17:27:39;22.10;59.10
59162;DHT22;44942;48.936;8.260;2023-10-31T17:32:39;22.10;59.10
59162;DHT22;44942;48.936;8.260;2023-10-31T17:37:40;22.10;59.10
59162;DHT22;44942;48.936;8.260;2023-10-31T17:42:41;22.00;59.10
59162;DHT22;44942;48.936;8.260;2023-10-31T17:47:41;22.00;59.10
59162;DHT22;44942;48.936;8.260;2023-10-31T17:52:42;22.00;59.20
59162;DHT22;44942;48.936;8.260;2023-10-31T17:57:42;22.00;59.10
59162;DHT22;44942;48.936;8.260;2023-10-31T18:02:43;22.00;59.00
59162;DHT22;44942;48.936;8.260;2023-10-31T18:07:43;22.00;58.90
59162;DHT22;44942;48.936;8.260;2023-10-31T18:12:44;22.10;59.00
59162;DHT22;44942;48.936;8.260;2023-10-31T18:17:47;22.10;58.90
59162;DHT22;44942;48.936;8.260;2023-10-31T18:22:47;22.10;58.90
59162;DHT22;44942;48.936;8.260;2023-10-31T18:27:48;22.10;58.90
59162;DHT22;44942;48.936;8.260;2023-10-31T18:32:48;22.10;58.90
59162;DHT22;44942;48.936;8.260;2023-10-31T18:37:50;22.10;59.00
59162;DHT22;44942;48.936;8.260;2023-10-31T18:42:50;22.10;59.10
59162;DHT22;44942;48.936;8.260;2023-10-31T18:47:51;22.10;59.10
59162;DHT22;44942;48.936;8.260;2023-10-31T18:52:52;22.10;59.10
59162;DHT22;44942;48.936;8.260;2023-10-31T18:57:52;22.10;59.10
59162;DHT22;44942;48.936;8.260;2023-10-31T19:02:53;22.10;59.10
59162;DHT22;44942;48.936;8.260;2023-10-31T19:07:54;22.10;59.10
59162;DHT22;44942;48.936;8.260;2023-10-31T19:12:54;22.10;59.30
59162;DHT22;44942;48.936;8.260;2023-10-31T19:17:55;22.10;59.30
59162;DHT22;44942;48.936;8.260;2023-10-31T19:22:56;22.10;59.20
59162;DHT22;44942;48.936;8.260;2023-10-31T19:27:57;22.10;59.30
59162;DHT22;44942;48.936;8.260;2023-10-31T19:32:57;22.10;59.30
59162;DHT22;44942;48.936;8.260;2023-10-31T19:37:58;22.10;59.50
59162;DHT22;44942;48.936;8.260;2023-10-31T19:42:58;22.10;59.40
59162;DHT22;44942;48.936;8.260;2023-10-31T19:48:02;22.10;60.10
59162;DHT22;44942;48.936;8.260;2023-10-31T19:53:03;22.10;59.40
59162;DHT22;44942;48.936;8.260;2023-10-31T19:58:04;22.10;59.50
59162;DHT22;44942;48.936;8.260;2023-10-31T20:03:05;22.10;59.40
59162;DHT22;44942;48.936;8.260;2023-10-31T20:08:05;22.10;59.40
59162;DHT22;44942;48.936;8.260;2023-10-31T20:13:06;22.10;59.50
59162;DHT22;44942;48.936;8.260;2023-10-31T20:18:06;22.10;59.50
59162;DHT22;44942;48.936;8.260;2023-10-31T20:23:07;22.10;59.60
59162;DHT22;44942;48.936;8.260;2023-10-31T20:28:08;22.10;59.60
59162;DHT22;44942;48.936;8.260;2023-10-31T20:33:08;22.10;60.40
59162;DHT22;44942;48.936;8.260;2023-10-31T20:38:09;22.10;59.60
59162;DHT22;44942;48.936;8.260;2023-10-31T20:43:09;22.20;59.60
59162;DHT22;44942;48.936;8.260;2023-10-31T20:48:10;22.20;60.50
59162;DHT22;44942;48.936;8.260;2023-10-31T20:53:11;22.30;59.70
59162;DHT22;44942;48.936;8.260;2023-10-31T20:58:12;22.30;59.50
59162;DHT22;44942;48.936;8.260;2023-10-31T21:03:13;22.30;59.40
59162;DHT22;44942;48.936;8.260;2023-10-31T21:08:14;22.30;59.50
59162;DHT22;44942;48.936;8.260;2023-10-31T21:13:15;22.30;59.60
59162;DHT22;44942;48.936;8.260;2023-10-31T21:18:15;22.30;59.60
59162;DHT22;44942;48.936;8.260;2023-10-31T21:23:16;22.40;59.60
59162;DHT22;44942;48.936;8.260;2023-10-31T21:28:17;22.30;59.40
59162;DHT22;44942;48.936;8.260;2023-10-31T21:33:18;22.10;59.20
59162;DHT22;44942;48.936;8.260;2023-10-31T21:38:19;22.20;59.20
59162;DHT22;44942;48.936;8.260;2023-10-31T21:43:19;22.30;59.20
59162;DHT22;44942;48.936;8.260;2023-10-31T21:48:21;22.30;59.00
59162;DHT22;44942;48.936;8.260;2023-10-31T21:53:23;22.30;59.10
59162;DHT22;44942;48.936;8.260;2023-10-31T21:58:24;22.30;59.10
59162;DHT22;44942;48.936;8.260;2023-10-31T22:03:25;22.40;59.10
59162;DHT22;44942;48.936;8.260;2023-10-31T22:08:26;22.40;59.10
59162;DHT22;44942;48.936;8.260;2023-10-31T22:13:27;22.40;59.10
59162;DHT22;44942;48.936;8.260;2023-10-31T22:18:30;22.40;59.10
59162;DHT22;44942;48.936;8.260;2023-10-31T22:23:30;22.40;59.10
59162;DHT22;44942;48.936;8.260;2023-10-31T22:28:31;22.40;59.00
59162;DHT22;44942;48.936;8.260;2023-10-31T22:33:32;22.20;59.00
59162;DHT22;44942;48.936;8.260;2023-10-31T22:38:32;22.20;58.80
59162;DHT22;44942;48.936;8.260;2023-10-31T22:43:33;22.30;58.70
59162;DHT22;44942;48.936;8.260;2023-10-31T22:48:34;22.30;58.80
59162;DHT22;44942;48.936;8.260;2023-10-31T22:53:34;22.40;58.80
59162;DHT22;44942;48.936;8.260;2023-10-31T22:58:35;22.40;58.80
59162;DHT22;44942;48.936;8.260;2023-10-31T23:03:35;22.40;58.90
59162;DHT22;44942;48.936;8.260;2023-10-31T23:08:36;22.40;58.90
59162;DHT22;44942;48.936;8.260;2023-10-31T23:13:38;22.40;59.00
59162;DHT22;44942;48.936;8.260;2023-10-31T23:18:39;22.40;59.10
59162;DHT22;44942;48.936;8.260;2023-10-31T23:23:39;22.40;59.00
59162;DHT22;44942;48.936;8.260;2023-10-31T23:28:40;22.40;59.10
59162;DHT22;44942;48.936;8.260;2023-10-31T23:33:41;22.20;58.90
59162;DHT22;44942;48.936;8.260;2023-10-31T23:38:42;22.30;58.90
59162;DHT22;44942;48.936;8.260;2023-10-31T23:43:42;22.30;58.70
59162;DHT22;44942;48.936;8.260;2023-10-31T23:48:43;22.40;58.70
59162;DHT22;44942;48.936;8.260;2023-10-31T23:53:43;22.40;58.70
59162;DHT22;44942;48.936;8.260;2023-10-31T23:58:44;22.40;58.70
